sensor_id;sensor_type;location;lat;lon;timestamp;P1;durP1;ratioP1;P2;durP2;ratioP2
64543;SDS011;50936;51.660;5.616;2023-07-16T00:00:16;3.83;;;2.25;;
64543;SDS011;50936;51.660;5.616;2023-07-16T00:02:51;4.53;;;2.40;;
64543;SDS011;50936;51.660;5.616;2023-07-16T00:05:18;4.30;;;2.05;;
64543;SDS011;50936;51.660;5.616;2023-07-16T00:07:44;5.22;;;2.13;;
64543;SDS011;50936;51.660;5.616;2023-07-16T00:10:11;4.78;;;2.10;;
64543;SDS011;50936;51.660;5.616;2023-07-16T00:12:38;4.65;;;2.20;;
64543;SDS011;50936;51.660;5.616;2023-07-16T00:15:06;5.05;;;2.25;;
64543;SDS011;50936;51.660;5.616;2023-07-16T00:17:34;8.00;;;2.15;;
64543;SDS011;50936;51.660;5.616;2023-07-16T00:20:02;5.55;;;2.17;;
64543;SDS011;50936;51.660;5.616;2023-07-16T00:22:30;4.55;;;1.85;;
64543;SDS011;50936;51.660;5.616;2023-07-16T00:24:58;5.20;;;1.90;;
64543;SDS011;50936;51.660;5.616;2023-07-16T00:27:24;6.75;;;2.17;;
64543;SDS011;50936;51.660;5.616;2023-07-16T00:29:51;5.00;;;1.92;;
64543;SDS011;50936;51.660;5.616;2023-07-16T00:32:18;6.78;;;2.15;;
64543;SDS011;50936;51.660;5.616;2023-07-16T00:34:46;5.97;;;2.22;;
64543;SDS011;50936;51.660;5.616;2023-07-16T00:37:13;4.72;;;2.00;;
64543;SDS011;50936;51.660;5.616;2023-07-16T00:39:39;5.97;;;2.03;;
64543;SDS011;50936;51.660;5.616;2023-07-16T00:42:06;5.65;;;1.88;;
64543;SDS011;50936;51.660;5.616;2023-07-16T00:44:34;5.25;;;2.22;;
64543;SDS011;50936;51.660;5.616;2023-07-16T00:47:02;4.38;;;1.80;;
64543;SDS011;50936;51.660;5.616;2023-07-16T00:49:29;4.70;;;1.80;;
64543;SDS011;50936;51.660;5.616;2023-07-16T00:51:58;4.45;;;1.80;;
64543;SDS011;50936;51.660;5.616;2023-07-16T00:54:29;5.88;;;2.00;;
64543;SDS011;50936;51.660;5.616;2023-07-16T00:56:56;4.88;;;2.10;;
64543;SDS011;50936;51.660;5.616;2023-07-16T00:59:24;4.10;;;1.95;;
64543;SDS011;50936;51.660;5.616;2023-07-16T01:01:51;4.47;;;1.77;;
64543;SDS011;50936;51.660;5.616;2023-07-16T01:04:18;5.43;;;1.90;;
64543;SDS011;50936;51.660;5.616;2023-07-16T01:06:50;6.07;;;2.20;;
64543;SDS011;50936;51.660;5.616;2023-07-16T01:09:22;5.85;;;2.10;;
64543;SDS011;50936;51.660;5.616;2023-07-16T01:11:49;4.80;;;2.00;;
64543;SDS011;50936;51.660;5.616;2023-07-16T01:14:19;3.60;;;1.80;;
64543;SDS011;50936;51.660;5.616;2023-07-16T01:16:48;5.30;;;1.73;;
64543;SDS011;50936;51.660;5.616;2023-07-16T01:19:15;4.63;;;1.92;;
64543;SDS011;50936;51.660;5.616;2023-07-16T01:21:47;3.55;;;1.70;;
64543;SDS011;50936;51.660;5.616;2023-07-16T01:25:05;5.25;;;2.10;;
64543;SDS011;50936;51.660;5.616;2023-07-16T01:30:43;4.03;;;1.77;;
64543;SDS011;50936;51.660;5.616;2023-07-16T01:33:12;3.17;;;1.50;;
64543;SDS011;50936;51.660;5.616;2023-07-16T01:38:12;3.63;;;1.70;;
64543;SDS011;50936;51.660;5.616;2023-07-16T01:40:41;6.15;;;2.00;;
64543;SDS011;50936;51.660;5.616;2023-07-16T01:43:08;6.47;;;1.77;;
64543;SDS011;50936;51.660;5.616;2023-07-16T01:45:35;5.50;;;1.90;;
64543;SDS011;50936;51.660;5.616;2023-07-16T01:50:58;5.07;;;2.00;;
64543;SDS011;50936;51.660;5.616;2023-07-16T01:53:25;5.28;;;1.83;;
64543;SDS011;50936;51.660;5.616;2023-07-16T01:55:52;4.32;;;1.67;;
64543;SDS011;50936;51.660;5.616;2023-07-16T01:58:20;3.83;;;1.60;;
64543;SDS011;50936;51.660;5.616;2023-07-16T02:00:48;5.03;;;1.65;;
64543;SDS011;50936;51.660;5.616;2023-07-16T02:03:16;4.13;;;1.63;;
64543;SDS011;50936;51.660;5.616;2023-07-16T02:05:44;4.10;;;1.98;;
64543;SDS011;50936;51.660;5.616;2023-07-16T02:08:11;5.10;;;1.80;;
64543;SDS011;50936;51.660;5.616;2023-07-16T02:10:38;3.55;;;1.60;;
64543;SDS011;50936;51.660;5.616;2023-07-16T02:13:05;5.57;;;1.60;;
64543;SDS011;50936;51.660;5.616;2023-07-16T02:15:32;3.25;;;1.40;;
64543;SDS011;50936;51.660;5.616;2023-07-16T02:17:59;4.32;;;2.00;;
64543;SDS011;50936;51.660;5.616;2023-07-16T02:20:26;4.50;;;1.80;;
64543;SDS011;50936;51.660;5.616;2023-07-16T02:22:53;4.13;;;1.60;;
64543;SDS011;50936;51.660;5.616;2023-07-16T02:25:20;6.40;;;1.92;;
64543;SDS011;50936;51.660;5.616;2023-07-16T02:27:47;3.72;;;1.85;;
64543;SDS011;50936;51.660;5.616;2023-07-16T02:30:15;4.93;;;1.80;;
64543;SDS011;50936;51.660;5.616;2023-07-16T02:32:42;5.35;;;1.77;;
64543;SDS011;50936;51.660;5.616;2023-07-16T02:35:10;5.75;;;1.80;;
64543;SDS011;50936;51.660;5.616;2023-07-16T02:37:37;4.07;;;1.73;;
64543;SDS011;50936;51.660;5.616;2023-07-16T02:40:06;6.20;;;1.70;;
64543;SDS011;50936;51.660;5.616;2023-07-16T02:42:33;5.47;;;2.00;;
64543;SDS011;50936;51.660;5.616;2023-07-16T02:45:00;3.70;;;1.70;;
64543;SDS011;50936;51.660;5.616;2023-07-16T02:47:27;4.15;;;1.83;;
64543;SDS011;50936;51.660;5.616;2023-07-16T02:49:54;4.18;;;1.73;;
64543;SDS011;50936;51.660;5.616;2023-07-16T02:52:21;3.10;;;1.70;;
64543;SDS011;50936;51.660;5.616;2023-07-16T02:54:48;4.28;;;1.70;;
64543;SDS011;50936;51.660;5.616;2023-07-16T02:57:15;6.28;;;1.88;;
64543;SDS011;50936;51.660;5.616;2023-07-16T02:59:42;5.13;;;2.00;;
64543;SDS011;50936;51.660;5.616;2023-07-16T03:02:09;3.83;;;1.70;;
64543;SDS011;50936;51.660;5.616;2023-07-16T03:04:36;3.38;;;1.63;;
64543;SDS011;50936;51.660;5.616;2023-07-16T03:07:04;4.18;;;1.70;;
64543;SDS011;50936;51.660;5.616;2023-07-16T03:09:32;3.42;;;1.90;;
64543;SDS011;50936;51.660;5.616;2023-07-16T03:11:59;4.68;;;1.85;;
64543;SDS011;50936;51.660;5.616;2023-07-16T03:14:26;3.97;;;1.60;;
64543;SDS011;50936;51.660;5.616;2023-07-16T03:16:53;4.45;;;1.88;;
64543;SDS011;50936;51.660;5.616;2023-07-16T03:19:20;3.53;;;1.77;;
64543;SDS011;50936;51.660;5.616;2023-07-16T03:21:47;4.03;;;1.70;;
64543;SDS011;50936;51.660;5.616;2023-07-16T03:24:16;3.50;;;1.63;;
64543;SDS011;50936;51.660;5.616;2023-07-16T03:26:43;4.30;;;1.70;;
64543;SDS011;50936;51.660;5.616;2023-07-16T03:29:11;3.53;;;1.80;;
64543;SDS011;50936;51.660;5.616;2023-07-16T03:31:38;5.00;;;1.92;;
64543;SDS011;50936;51.660;5.616;2023-07-16T03:34:05;3.42;;;1.65;;
64543;SDS011;50936;51.660;5.616;2023-07-16T03:36:32;5.15;;;2.00;;
64543;SDS011;50936;51.660;5.616;2023-07-16T03:38:59;4.43;;;1.90;;
64543;SDS011;50936;51.660;5.616;2023-07-16T03:41:26;4.93;;;1.70;;
64543;SDS011;50936;51.660;5.616;2023-07-16T03:43:53;9.35;;;2.42;;
64543;SDS011;50936;51.660;5.616;2023-07-16T03:46:20;3.90;;;2.08;;
64543;SDS011;50936;51.660;5.616;2023-07-16T03:48:48;5.45;;;1.90;;
64543;SDS011;50936;51.660;5.616;2023-07-16T03:51:15;6.28;;;1.80;;
64543;SDS011;50936;51.660;5.616;2023-07-16T03:53:43;6.35;;;2.00;;
64543;SDS011;50936;51.660;5.616;2023-07-16T03:56:10;4.82;;;2.30;;
64543;SDS011;50936;51.660;5.616;2023-07-16T03:58:37;5.45;;;2.05;;
64543;SDS011;50936;51.660;5.616;2023-07-16T04:01:05;5.40;;;2.10;;
64543;SDS011;50936;51.660;5.616;2023-07-16T04:03:32;7.38;;;2.40;;
64543;SDS011;50936;51.660;5.616;2023-07-16T04:06:03;4.75;;;2.20;;
64543;SDS011;50936;51.660;5.616;2023-07-16T04:08:37;5.35;;;2.20;;
64543;SDS011;50936;51.660;5.616;2023-07-16T04:11:05;6.28;;;2.42;;
64543;SDS011;50936;51.660;5.616;2023-07-16T04:13:32;5.05;;;2.30;;
64543;SDS011;50936;51.660;5.616;2023-07-16T04:16:00;9.25;;;2.38;;
64543;SDS011;50936;51.660;5.616;2023-07-16T04:18:27;6.18;;;2.42;;
64543;SDS011;50936;51.660;5.616;2023-07-16T04:20:54;6.93;;;2.50;;
64543;SDS011;50936;51.660;5.616;2023-07-16T04:23:21;6.47;;;2.30;;
64543;SDS011;50936;51.660;5.616;2023-07-16T04:25:52;7.88;;;2.45;;
64543;SDS011;50936;51.660;5.616;2023-07-16T04:28:20;4.32;;;2.28;;
64543;SDS011;50936;51.660;5.616;2023-07-16T04:30:48;5.68;;;2.45;;
64543;SDS011;50936;51.660;5.616;2023-07-16T04:33:15;6.00;;;2.25;;
64543;SDS011;50936;51.660;5.616;2023-07-16T04:35:42;5.80;;;2.40;;
64543;SDS011;50936;51.660;5.616;2023-07-16T04:38:09;5.78;;;2.20;;
64543;SDS011;50936;51.660;5.616;2023-07-16T04:40:36;6.97;;;2.30;;
64543;SDS011;50936;51.660;5.616;2023-07-16T04:43:02;5.20;;;2.10;;
64543;SDS011;50936;51.660;5.616;2023-07-16T04:45:29;7.03;;;2.10;;
64543;SDS011;50936;51.660;5.616;2023-07-16T04:47:56;9.07;;;2.50;;
64543;SDS011;50936;51.660;5.616;2023-07-16T04:50:23;8.38;;;2.33;;
64543;SDS011;50936;51.660;5.616;2023-07-16T04:52:51;4.65;;;2.17;;
64543;SDS011;50936;51.660;5.616;2023-07-16T04:55:17;7.95;;;2.65;;
64543;SDS011;50936;51.660;5.616;2023-07-16T04:57:44;7.30;;;2.63;;
64543;SDS011;50936;51.660;5.616;2023-07-16T05:00:11;5.82;;;2.42;;
64543;SDS011;50936;51.660;5.616;2023-07-16T05:02:39;5.88;;;2.20;;
64543;SDS011;50936;51.660;5.616;2023-07-16T05:05:06;6.32;;;2.47;;
64543;SDS011;50936;51.660;5.616;2023-07-16T05:07:33;4.55;;;2.53;;
64543;SDS011;50936;51.660;5.616;2023-07-16T05:10:00;6.25;;;2.42;;
64543;SDS011;50936;51.660;5.616;2023-07-16T05:12:27;7.18;;;2.90;;
64543;SDS011;50936;51.660;5.616;2023-07-16T05:14:54;4.72;;;2.60;;
64543;SDS011;50936;51.660;5.616;2023-07-16T05:17:30;5.63;;;2.94;;
64543;SDS011;50936;51.660;5.616;2023-07-16T05:19:57;5.95;;;2.53;;
64543;SDS011;50936;51.660;5.616;2023-07-16T05:22:24;7.65;;;2.72;;
64543;SDS011;50936;51.660;5.616;2023-07-16T05:24:51;5.95;;;2.88;;
64543;SDS011;50936;51.660;5.616;2023-07-16T05:27:18;6.53;;;2.75;;
64543;SDS011;50936;51.660;5.616;2023-07-16T05:29:45;7.00;;;2.90;;
64543;SDS011;50936;51.660;5.616;2023-07-16T05:32:12;7.07;;;3.13;;
64543;SDS011;50936;51.660;5.616;2023-07-16T05:34:39;11.40;;;3.50;;
64543;SDS011;50936;51.660;5.616;2023-07-16T05:37:06;5.35;;;2.70;;
64543;SDS011;50936;51.660;5.616;2023-07-16T05:39:33;5.97;;;2.80;;
64543;SDS011;50936;51.660;5.616;2023-07-16T05:42:00;8.50;;;3.00;;
64543;SDS011;50936;51.660;5.616;2023-07-16T05:44:29;7.00;;;3.10;;
64543;SDS011;50936;51.660;5.616;2023-07-16T05:46:56;5.90;;;2.67;;
64543;SDS011;50936;51.660;5.616;2023-07-16T05:49:23;7.28;;;3.17;;
64543;SDS011;50936;51.660;5.616;2023-07-16T05:51:52;7.78;;;3.58;;
64543;SDS011;50936;51.660;5.616;2023-07-16T05:54:21;7.88;;;3.40;;
64543;SDS011;50936;51.660;5.616;2023-07-16T05:56:49;6.15;;;2.72;;
64543;SDS011;50936;51.660;5.616;2023-07-16T05:59:16;5.95;;;3.03;;
64543;SDS011;50936;51.660;5.616;2023-07-16T06:01:43;6.00;;;2.90;;
64543;SDS011;50936;51.660;5.616;2023-07-16T06:04:10;6.15;;;3.10;;
64543;SDS011;50936;51.660;5.616;2023-07-16T06:06:37;9.05;;;3.63;;
64543;SDS011;50936;51.660;5.616;2023-07-16T06:09:04;9.43;;;3.08;;
64543;SDS011;50936;51.660;5.616;2023-07-16T06:11:31;6.65;;;3.38;;
64543;SDS011;50936;51.660;5.616;2023-07-16T06:13:58;8.60;;;3.53;;
64543;SDS011;50936;51.660;5.616;2023-07-16T06:16:25;8.88;;;3.78;;
64543;SDS011;50936;51.660;5.616;2023-07-16T06:18:52;8.82;;;3.50;;
64543;SDS011;50936;51.660;5.616;2023-07-16T06:21:19;9.52;;;3.85;;
64543;SDS011;50936;51.660;5.616;2023-07-16T06:23:46;9.50;;;3.63;;
64543;SDS011;50936;51.660;5.616;2023-07-16T06:26:13;10.30;;;3.65;;
64543;SDS011;50936;51.660;5.616;2023-07-16T06:28:41;9.80;;;4.10;;
64543;SDS011;50936;51.660;5.616;2023-07-16T06:31:08;9.57;;;3.47;;
64543;SDS011;50936;51.660;5.616;2023-07-16T06:33:35;23.02;;;5.80;;
64543;SDS011;50936;51.660;5.616;2023-07-16T06:36:02;15.63;;;5.40;;
64543;SDS011;50936;51.660;5.616;2023-07-16T06:38:29;18.00;;;4.97;;
64543;SDS011;50936;51.660;5.616;2023-07-16T06:40:56;18.83;;;5.40;;
64543;SDS011;50936;51.660;5.616;2023-07-16T06:43:23;12.40;;;4.57;;
64543;SDS011;50936;51.660;5.616;2023-07-16T06:45:50;9.57;;;4.10;;
64543;SDS011;50936;51.660;5.616;2023-07-16T06:48:17;9.55;;;3.97;;
64543;SDS011;50936;51.660;5.616;2023-07-16T06:50:45;8.18;;;3.63;;
64543;SDS011;50936;51.660;5.616;2023-07-16T06:53:12;10.55;;;4.03;;
64543;SDS011;50936;51.660;5.616;2023-07-16T06:55:39;9.40;;;3.95;;
64543;SDS011;50936;51.660;5.616;2023-07-16T06:58:09;11.00;;;3.88;;
64543;SDS011;50936;51.660;5.616;2023-07-16T07:00:38;12.27;;;4.38;;
64543;SDS011;50936;51.660;5.616;2023-07-16T07:03:05;8.80;;;3.83;;
64543;SDS011;50936;51.660;5.616;2023-07-16T07:05:32;9.68;;;3.50;;
64543;SDS011;50936;51.660;5.616;2023-07-16T07:07:59;9.85;;;3.80;;
64543;SDS011;50936;51.660;5.616;2023-07-16T07:10:26;8.02;;;3.88;;
64543;SDS011;50936;51.660;5.616;2023-07-16T07:12:53;11.50;;;3.80;;
64543;SDS011;50936;51.660;5.616;2023-07-16T07:15:20;17.00;;;4.20;;
64543;SDS011;50936;51.660;5.616;2023-07-16T07:17:47;7.35;;;3.38;;
64543;SDS011;50936;51.660;5.616;2023-07-16T07:20:15;8.02;;;3.75;;
64543;SDS011;50936;51.660;5.616;2023-07-16T07:22:42;7.97;;;3.55;;
64543;SDS011;50936;51.660;5.616;2023-07-16T07:25:09;8.93;;;4.05;;
64543;SDS011;50936;51.660;5.616;2023-07-16T07:27:36;8.52;;;3.95;;
64543;SDS011;50936;51.660;5.616;2023-07-16T07:30:03;7.53;;;3.70;;
64543;SDS011;50936;51.660;5.616;2023-07-16T07:32:31;8.45;;;3.80;;
64543;SDS011;50936;51.660;5.616;2023-07-16T07:34:59;8.98;;;4.15;;
64543;SDS011;50936;51.660;5.616;2023-07-16T07:37:29;8.18;;;4.22;;
64543;SDS011;50936;51.660;5.616;2023-07-16T07:39:58;10.38;;;4.50;;
64543;SDS011;50936;51.660;5.616;2023-07-16T07:42:25;10.68;;;4.50;;
64543;SDS011;50936;51.660;5.616;2023-07-16T07:44:56;10.82;;;3.97;;
64543;SDS011;50936;51.660;5.616;2023-07-16T07:47:24;9.00;;;3.85;;
64543;SDS011;50936;51.660;5.616;2023-07-16T07:49:52;7.28;;;4.13;;
64543;SDS011;50936;51.660;5.616;2023-07-16T07:52:19;7.50;;;3.75;;
64543;SDS011;50936;51.660;5.616;2023-07-16T07:54:46;8.05;;;4.28;;
64543;SDS011;50936;51.660;5.616;2023-07-16T07:57:13;12.55;;;4.47;;
64543;SDS011;50936;51.660;5.616;2023-07-16T07:59:44;9.18;;;3.83;;
64543;SDS011;50936;51.660;5.616;2023-07-16T08:02:11;7.22;;;3.95;;
64543;SDS011;50936;51.660;5.616;2023-07-16T08:04:38;9.07;;;3.83;;
64543;SDS011;50936;51.660;5.616;2023-07-16T08:07:05;8.20;;;4.00;;
64543;SDS011;50936;51.660;5.616;2023-07-16T08:09:32;8.52;;;3.33;;
64543;SDS011;50936;51.660;5.616;2023-07-16T08:11:59;8.00;;;4.43;;
64543;SDS011;50936;51.660;5.616;2023-07-16T08:14:26;7.78;;;3.53;;
64543;SDS011;50936;51.660;5.616;2023-07-16T08:16:53;8.82;;;3.80;;
64543;SDS011;50936;51.660;5.616;2023-07-16T08:19:20;8.00;;;3.85;;
64543;SDS011;50936;51.660;5.616;2023-07-16T08:21:47;9.02;;;4.22;;
64543;SDS011;50936;51.660;5.616;2023-07-16T08:24:14;6.63;;;3.63;;
64543;SDS011;50936;51.660;5.616;2023-07-16T08:26:41;6.82;;;3.78;;
64543;SDS011;50936;51.660;5.616;2023-07-16T08:29:08;9.07;;;3.85;;
64543;SDS011;50936;51.660;5.616;2023-07-16T08:31:35;7.40;;;4.03;;
64543;SDS011;50936;51.660;5.616;2023-07-16T08:34:02;7.03;;;4.00;;
64543;SDS011;50936;51.660;5.616;2023-07-16T08:36:30;8.93;;;4.53;;
64543;SDS011;50936;51.660;5.616;2023-07-16T08:38:59;9.20;;;4.50;;
64543;SDS011;50936;51.660;5.616;2023-07-16T08:41:26;8.15;;;4.07;;
64543;SDS011;50936;51.660;5.616;2023-07-16T08:43:54;7.45;;;4.45;;
64543;SDS011;50936;51.660;5.616;2023-07-16T08:46:22;9.80;;;4.18;;
64543;SDS011;50936;51.660;5.616;2023-07-16T08:48:50;8.27;;;3.80;;
64543;SDS011;50936;51.660;5.616;2023-07-16T08:51:18;7.50;;;4.10;;
64543;SDS011;50936;51.660;5.616;2023-07-16T08:53:48;7.57;;;3.65;;
64543;SDS011;50936;51.660;5.616;2023-07-16T08:56:15;7.53;;;4.20;;
64543;SDS011;50936;51.660;5.616;2023-07-16T08:58:43;6.55;;;3.88;;
64543;SDS011;50936;51.660;5.616;2023-07-16T09:01:11;8.23;;;3.80;;
64543;SDS011;50936;51.660;5.616;2023-07-16T09:03:39;6.65;;;3.65;;
64543;SDS011;50936;51.660;5.616;2023-07-16T09:06:06;7.07;;;3.80;;
64543;SDS011;50936;51.660;5.616;2023-07-16T09:08:33;7.13;;;3.83;;
64543;SDS011;50936;51.660;5.616;2023-07-16T09:11:00;9.63;;;3.97;;
64543;SDS011;50936;51.660;5.616;2023-07-16T09:13:28;7.82;;;3.53;;
64543;SDS011;50936;51.660;5.616;2023-07-16T09:15:57;7.38;;;3.97;;
64543;SDS011;50936;51.660;5.616;2023-07-16T09:18:26;9.20;;;4.00;;
64543;SDS011;50936;51.660;5.616;2023-07-16T09:20:58;7.20;;;3.65;;
64543;SDS011;50936;51.660;5.616;2023-07-16T09:23:29;7.78;;;4.07;;
64543;SDS011;50936;51.660;5.616;2023-07-16T09:25:57;8.13;;;4.32;;
64543;SDS011;50936;51.660;5.616;2023-07-16T09:28:24;7.03;;;3.90;;
64543;SDS011;50936;51.660;5.616;2023-07-16T09:30:52;9.18;;;4.20;;
64543;SDS011;50936;51.660;5.616;2023-07-16T09:33:21;8.05;;;3.85;;
64543;SDS011;50936;51.660;5.616;2023-07-16T09:35:50;7.18;;;3.55;;
64543;SDS011;50936;51.660;5.616;2023-07-16T09:38:18;7.70;;;4.10;;
64543;SDS011;50936;51.660;5.616;2023-07-16T09:40:45;7.85;;;3.90;;
64543;SDS011;50936;51.660;5.616;2023-07-16T09:43:12;6.65;;;3.67;;
64543;SDS011;50936;51.660;5.616;2023-07-16T09:45:40;8.43;;;3.90;;
64543;SDS011;50936;51.660;5.616;2023-07-16T09:48:09;6.43;;;3.78;;
64543;SDS011;50936;51.660;5.616;2023-07-16T09:50:37;6.65;;;3.70;;
64543;SDS011;50936;51.660;5.616;2023-07-16T09:53:18;8.35;;;4.13;;
64543;SDS011;50936;51.660;5.616;2023-07-16T09:55:47;8.02;;;4.07;;
64543;SDS011;50936;51.660;5.616;2023-07-16T09:58:17;7.13;;;3.70;;
64543;SDS011;50936;51.660;5.616;2023-07-16T10:00:47;6.05;;;3.60;;
64543;SDS011;50936;51.660;5.616;2023-07-16T10:03:16;7.82;;;3.88;;
64543;SDS011;50936;51.660;5.616;2023-07-16T10:05:46;7.97;;;3.75;;
64543;SDS011;50936;51.660;5.616;2023-07-16T10:08:17;6.60;;;3.55;;
64543;SDS011;50936;51.660;5.616;2023-07-16T10:10:47;7.03;;;3.88;;
64543;SDS011;50936;51.660;5.616;2023-07-16T10:13:22;6.85;;;3.60;;
64543;SDS011;50936;51.660;5.616;2023-07-16T10:15:54;7.97;;;3.63;;
64543;SDS011;50936;51.660;5.616;2023-07-16T10:18:25;6.68;;;3.95;;
64543;SDS011;50936;51.660;5.616;2023-07-16T10:21:01;6.43;;;3.95;;
64543;SDS011;50936;51.660;5.616;2023-07-16T10:23:40;5.97;;;3.60;;
64543;SDS011;50936;51.660;5.616;2023-07-16T10:26:10;6.95;;;3.53;;
64543;SDS011;50936;51.660;5.616;2023-07-16T10:28:45;6.30;;;3.55;;
64543;SDS011;50936;51.660;5.616;2023-07-16T10:31:20;6.43;;;3.42;;
64543;SDS011;50936;51.660;5.616;2023-07-16T10:34:03;6.65;;;3.35;;
64543;SDS011;50936;51.660;5.616;2023-07-16T10:36:38;6.60;;;3.72;;
64543;SDS011;50936;51.660;5.616;2023-07-16T10:39:06;7.07;;;3.55;;
64543;SDS011;50936;51.660;5.616;2023-07-16T10:41:34;7.20;;;3.55;;
64543;SDS011;50936;51.660;5.616;2023-07-16T10:44:01;6.43;;;3.78;;
64543;SDS011;50936;51.660;5.616;2023-07-16T10:46:28;7.28;;;3.88;;
64543;SDS011;50936;51.660;5.616;2023-07-16T10:49:00;7.82;;;3.90;;
64543;SDS011;50936;51.660;5.616;2023-07-16T10:51:27;7.82;;;3.45;;
64543;SDS011;50936;51.660;5.616;2023-07-16T10:53:55;6.60;;;3.55;;
64543;SDS011;50936;51.660;5.616;2023-07-16T10:56:23;7.50;;;3.75;;
64543;SDS011;50936;51.660;5.616;2023-07-16T10:58:52;6.57;;;3.75;;
64543;SDS011;50936;51.660;5.616;2023-07-16T11:01:19;6.55;;;3.50;;
64543;SDS011;50936;51.660;5.616;2023-07-16T11:03:47;6.18;;;3.45;;
64543;SDS011;50936;51.660;5.616;2023-07-16T11:06:14;5.40;;;3.25;;
64543;SDS011;50936;51.660;5.616;2023-07-16T11:08:43;6.20;;;3.40;;
64543;SDS011;50936;51.660;5.616;2023-07-16T11:11:11;6.15;;;3.45;;
64543;SDS011;50936;51.660;5.616;2023-07-16T11:13:37;6.55;;;3.53;;
64543;SDS011;50936;51.660;5.616;2023-07-16T11:16:07;5.78;;;3.42;;
64543;SDS011;50936;51.660;5.616;2023-07-16T11:18:36;7.80;;;3.53;;
64543;SDS011;50936;51.660;5.616;2023-07-16T11:21:03;6.65;;;3.55;;
64543;SDS011;50936;51.660;5.616;2023-07-16T11:23:34;6.93;;;4.10;;
64543;SDS011;50936;51.660;5.616;2023-07-16T11:26:02;6.38;;;3.67;;
64543;SDS011;50936;51.660;5.616;2023-07-16T11:28:40;6.93;;;3.70;;
64543;SDS011;50936;51.660;5.616;2023-07-16T11:31:15;5.97;;;3.58;;
64543;SDS011;50936;51.660;5.616;2023-07-16T11:33:46;5.88;;;3.22;;
64543;SDS011;50936;51.660;5.616;2023-07-16T11:36:13;7.20;;;3.60;;
64543;SDS011;50936;51.660;5.616;2023-07-16T11:38:43;5.30;;;2.83;;
64543;SDS011;50936;51.660;5.616;2023-07-16T11:41:11;6.10;;;3.10;;
64543;SDS011;50936;51.660;5.616;2023-07-16T11:43:40;5.93;;;3.45;;
64543;SDS011;50936;51.660;5.616;2023-07-16T11:46:14;5.72;;;3.25;;
64543;SDS011;50936;51.660;5.616;2023-07-16T11:48:44;5.63;;;3.00;;
64543;SDS011;50936;51.660;5.616;2023-07-16T11:51:12;5.95;;;3.22;;
64543;SDS011;50936;51.660;5.616;2023-07-16T11:53:39;5.45;;;3.00;;
64543;SDS011;50936;51.660;5.616;2023-07-16T11:56:06;5.82;;;3.10;;
64543;SDS011;50936;51.660;5.616;2023-07-16T11:58:33;5.05;;;3.15;;
64543;SDS011;50936;51.660;5.616;2023-07-16T12:01:00;5.40;;;3.00;;
64543;SDS011;50936;51.660;5.616;2023-07-16T12:03:27;5.85;;;3.05;;
64543;SDS011;50936;51.660;5.616;2023-07-16T12:05:55;5.85;;;3.20;;
64543;SDS011;50936;51.660;5.616;2023-07-16T12:08:22;8.07;;;3.30;;
64543;SDS011;50936;51.660;5.616;2023-07-16T12:10:49;6.65;;;3.00;;
64543;SDS011;50936;51.660;5.616;2023-07-16T12:13:16;6.32;;;3.40;;
64543;SDS011;50936;51.660;5.616;2023-07-16T12:15:43;6.32;;;3.67;;
64543;SDS011;50936;51.660;5.616;2023-07-16T12:18:10;6.97;;;3.20;;
64543;SDS011;50936;51.660;5.616;2023-07-16T12:20:37;5.82;;;3.42;;
64543;SDS011;50936;51.660;5.616;2023-07-16T12:23:05;8.15;;;3.75;;
64543;SDS011;50936;51.660;5.616;2023-07-16T12:25:32;7.07;;;3.30;;
64543;SDS011;50936;51.660;5.616;2023-07-16T12:28:00;7.07;;;3.35;;
64543;SDS011;50936;51.660;5.616;2023-07-16T12:30:28;6.80;;;3.40;;
64543;SDS011;50936;51.660;5.616;2023-07-16T12:32:56;5.47;;;3.17;;
64543;SDS011;50936;51.660;5.616;2023-07-16T12:35:23;5.60;;;2.78;;
64543;SDS011;50936;51.660;5.616;2023-07-16T12:37:50;5.35;;;3.05;;
64543;SDS011;50936;51.660;5.616;2023-07-16T12:40:17;9.63;;;3.38;;
64543;SDS011;50936;51.660;5.616;2023-07-16T12:42:45;6.82;;;3.25;;
64543;SDS011;50936;51.660;5.616;2023-07-16T12:45:12;7.72;;;3.50;;
64543;SDS011;50936;51.660;5.616;2023-07-16T12:47:39;5.75;;;3.10;;
64543;SDS011;50936;51.660;5.616;2023-07-16T12:50:07;6.10;;;3.20;;
64543;SDS011;50936;51.660;5.616;2023-07-16T12:52:34;7.10;;;3.55;;
64543;SDS011;50936;51.660;5.616;2023-07-16T12:55:02;6.40;;;3.50;;
64543;SDS011;50936;51.660;5.616;2023-07-16T12:57:29;6.43;;;3.13;;
64543;SDS011;50936;51.660;5.616;2023-07-16T12:59:56;7.75;;;3.75;;
64543;SDS011;50936;51.660;5.616;2023-07-16T13:02:23;6.47;;;3.30;;
64543;SDS011;50936;51.660;5.616;2023-07-16T13:04:50;5.40;;;3.00;;
64543;SDS011;50936;51.660;5.616;2023-07-16T13:07:17;5.15;;;2.90;;
64543;SDS011;50936;51.660;5.616;2023-07-16T13:09:44;5.40;;;3.00;;
64543;SDS011;50936;51.660;5.616;2023-07-16T13:12:11;6.25;;;3.15;;
64543;SDS011;50936;51.660;5.616;2023-07-16T13:14:38;5.00;;;3.30;;
64543;SDS011;50936;51.660;5.616;2023-07-16T13:17:05;8.63;;;3.45;;
64543;SDS011;50936;51.660;5.616;2023-07-16T13:19:32;6.47;;;3.70;;
64543;SDS011;50936;51.660;5.616;2023-07-16T13:21:59;5.07;;;3.22;;
64543;SDS011;50936;51.660;5.616;2023-07-16T13:24:26;5.38;;;3.10;;
64543;SDS011;50936;51.660;5.616;2023-07-16T13:26:53;7.50;;;3.25;;
64543;SDS011;50936;51.660;5.616;2023-07-16T13:29:20;5.60;;;3.50;;
64543;SDS011;50936;51.660;5.616;2023-07-16T13:31:47;5.90;;;2.90;;
64543;SDS011;50936;51.660;5.616;2023-07-16T13:34:14;6.35;;;3.33;;
64543;SDS011;50936;51.660;5.616;2023-07-16T13:36:41;6.35;;;3.38;;
64543;SDS011;50936;51.660;5.616;2023-07-16T13:39:08;5.88;;;2.92;;
64543;SDS011;50936;51.660;5.616;2023-07-16T13:41:36;5.63;;;3.30;;
64543;SDS011;50936;51.660;5.616;2023-07-16T13:44:03;6.30;;;3.38;;
64543;SDS011;50936;51.660;5.616;2023-07-16T13:46:30;5.55;;;3.13;;
64543;SDS011;50936;51.660;5.616;2023-07-16T13:48:58;4.63;;;2.92;;
64543;SDS011;50936;51.660;5.616;2023-07-16T13:51:26;6.38;;;3.35;;
64543;SDS011;50936;51.660;5.616;2023-07-16T13:53:53;5.90;;;3.13;;
64543;SDS011;50936;51.660;5.616;2023-07-16T13:56:20;7.07;;;3.03;;
64543;SDS011;50936;51.660;5.616;2023-07-16T13:58:47;6.30;;;3.20;;
64543;SDS011;50936;51.660;5.616;2023-07-16T14:01:14;5.63;;;3.00;;
64543;SDS011;50936;51.660;5.616;2023-07-16T14:03:43;5.00;;;3.05;;
64543;SDS011;50936;51.660;5.616;2023-07-16T14:06:10;6.28;;;3.30;;
64543;SDS011;50936;51.660;5.616;2023-07-16T14:08:37;5.28;;;2.90;;
64543;SDS011;50936;51.660;5.616;2023-07-16T14:11:05;6.35;;;3.00;;
64543;SDS011;50936;51.660;5.616;2023-07-16T14:13:32;7.07;;;3.25;;
64543;SDS011;50936;51.660;5.616;2023-07-16T14:15:59;6.65;;;2.80;;
64543;SDS011;50936;51.660;5.616;2023-07-16T14:18:26;5.43;;;3.20;;
64543;SDS011;50936;51.660;5.616;2023-07-16T14:20:52;7.15;;;3.38;;
64543;SDS011;50936;51.660;5.616;2023-07-16T14:23:19;6.10;;;3.08;;
64543;SDS011;50936;51.660;5.616;2023-07-16T14:25:46;5.28;;;3.40;;
64543;SDS011;50936;51.660;5.616;2023-07-16T14:28:13;4.38;;;2.70;;
64543;SDS011;50936;51.660;5.616;2023-07-16T14:30:40;5.22;;;3.10;;
64543;SDS011;50936;51.660;5.616;2023-07-16T14:33:07;5.88;;;2.78;;
64543;SDS011;50936;51.660;5.616;2023-07-16T14:35:34;5.10;;;2.88;;
64543;SDS011;50936;51.660;5.616;2023-07-16T14:38:04;5.68;;;2.90;;
64543;SDS011;50936;51.660;5.616;2023-07-16T14:40:31;5.40;;;3.20;;
64543;SDS011;50936;51.660;5.616;2023-07-16T14:42:59;5.88;;;2.78;;
64543;SDS011;50936;51.660;5.616;2023-07-16T14:45:26;5.35;;;3.13;;
64543;SDS011;50936;51.660;5.616;2023-07-16T14:47:54;5.45;;;3.13;;
64543;SDS011;50936;51.660;5.616;2023-07-16T14:50:21;6.60;;;2.70;;
64543;SDS011;50936;51.660;5.616;2023-07-16T14:52:50;5.47;;;3.25;;
64543;SDS011;50936;51.660;5.616;2023-07-16T14:55:17;6.45;;;2.80;;
64543;SDS011;50936;51.660;5.616;2023-07-16T14:57:44;6.10;;;2.67;;
64543;SDS011;50936;51.660;5.616;2023-07-16T15:00:11;5.75;;;2.95;;